Decoded Metar for CYET (EDSON in AB, CANADA) (IATA:YET) | Meteo·Mobile Aviation Weather
aviador You're here:

CYET Decoded Metar

EDSON in AB, CANADA
Report Time2019-05-22 14:00:00
UTC Time2019-05-22 14:55:02
Flight Rules vfr VFR
Wind060° at 02 kt
W.Decomp.*RWY 07: 1.7 kt HW 1 kt LCW
Visibility9999 m
Phenomena:N/A
Clouds:N/A
Expected CloudBase > 2,000 ft AGL from Temp-Dew spread
CeilingNone
Temp08°C (ISA -1)
Dew Point03°C (71% RH)
AAT5.8°C
QNH1019 hPa
Density Alt2,828 ft
Elevation3,035 ft
Report Wrong Elevation
Raw Report
CYET 221400Z AUTO 06002KT 9SM CLR 08/03 A3008 RMK SLP203=

Extra information for CYET:More info

Metar Taf Metar & Taf Last 4 Metars F.Rules Stats Wind Profile Meteogram Temp Stats Airport Information Weather charts Add Link Nearby VenuesMetar ALERT Operation Metar Decoded Social comments